首页
METAR-TAF:

METAR-TAF

机场 :

Sonora Municipal Airport

Sonora, 得克萨斯州, 美国

纬度: 30-35-08N, 经度: 100-38-54W, 海拔: 652米

当前天气观测

该预报发布于25分钟前的23:35 UTC
风速11节,风向
温度 17°C
湿度 48%
气压 1014 hPa
能見度: 16.1公里
天空无云

METAR: KSOA 092335Z AUTO 01011KT 10SM CLR 17/06 A2995 RMK AO2

时间: 18:00 (00:00 UTC)

预报

该预报发布于33分钟前的23:27 UTC
预报有效从10日的 00点(UTC)到 10日的 24点(UTC)
风速12节,风向,有时为19节阵风
能見度: 10公里
散云层高于7000英尺
多云层高于25000英尺
从 10日的 0100点(UTC)
风速15节,风向,有时为22节阵风
能見度: 10公里
阴天层高于5000英尺
从 10日的 0600点(UTC)
风速14节,风向北转东北,有时为20节阵风
能見度: 10公里
阴天层高于3000英尺
小雨
从 10日的 0900点(UTC)
风速12节,风向北转东北,有时为18节阵风
能見度: 8.0公里
阴天层高于800英尺
从 10日的 1400点(UTC)
风速10节,风向
能見度: 10公里
阴天层高于1000英尺
小雨
从 10日的 2200点(UTC)
风速6节,风向
能見度: 10公里
散云层高于2500英尺
多云层高于3500英尺

TAF: KSOA 092327Z 1000/1024 01012G19KT P6SM SCT070 BKN250 FM100100 01015G22KT P6SM OVC050 FM100600 03014G20KT P6SM -RA OVC030 FM100900 03012G18KT 5SM RA OVC008 FM101400 01010KT P6SM -RA OVC010 FM102200 01006KT P6SM SCT025 BKN035

超过4000个机场的气象观测和天气预报(METAR&TAF报告)。

可查询的气象台以黄色和红色小点在地图上表示。

将鼠标移到小点上方,可查看气象台名称。

然后点击查看天气观测和预报。

如需切换地图:点击带黑十字的绿色按钮放大地图;点击带横线的绿色按钮缩小地图;或者点击绿色箭头查看邻近地区的地图。


METAR-TAF: